This is the latest recevied weather packets stored in our database for station/object VK5KX. If no packets are shown the sender has not sent any weather packets the latest 10 day(s).
| Time | Temp. | Humidity | Pressure | Rain* | Wind** | Luminosity | Snow |
|---|---|---|---|---|---|---|---|
| 1778052662 | 17.22° C | 70% | 1022.5 hPa | 0 mm | - | - | - |
| 1778051757 | 17.78° C | 71% | 1022.4 hPa | 0 mm | - | - | - |
| 1778050876 | 17.78° C | 71% | 1022.3 hPa | 0 mm | - | - | - |
| 1778049969 | 17.78° C | 71% | 1022.2 hPa | 0 mm | - | - | - |
| 1778049056 | 18.33° C | 71% | 1022.1 hPa | 0 mm | - | - | - |
| 1778048157 | 18.33° C | 72% | 1022.1 hPa | 0 mm | - | - | - |
| 1778047258 | 17.78° C | 76% | 1022 hPa | 0 mm | - | - | - |
| 1778046354 | 17.22° C | 80% | 1022 hPa | 0 mm | - | - | - |
| 1778045459 | 16.67° C | 84% | 1022 hPa | 0 mm | - | - | - |
| 1778044557 | 16.67° C | 84% | 1022.1 hPa | 0 mm | - | - | - |
| 1778043652 | 17.22° C | 81% | 1022 hPa | 0.25 mm | - | - | - |
| 1778042758 | 17.22° C | 82% | 1021.9 hPa | 0.25 mm | - | - | - |
| 1778041851 | 17.22° C | 82% | 1021.9 hPa | 0.25 mm | - | - | - |
| 1778040954 | 17.22° C | 84% | 1021.9 hPa | 0.25 mm | - | - | - |
| 1778040047 | 16.67° C | 88% | 1022 hPa | 0.51 mm | - | - | - |
| 1778039146 | 16.67° C | 89% | 1022.2 hPa | 0.51 mm | - | - | - |
| 1778038244 | 16.67° C | 88% | 1022.1 hPa | 0.51 mm | - | - | - |
| 1778037355 | 17.22° C | 83% | 1022.5 hPa | 0.51 mm | - | - | - |
| 1778036456 | 18.33° C | 76% | 1022.4 hPa | 0 mm | - | - | - |
| 1778035538 | 18.33° C | 74% | 1022.8 hPa | 0 mm | - | - | - |
| 1778034638 | 18.33° C | 74% | 1023 hPa | 0 mm | - | - | - |
| 1778033734 | 18.33° C | 75% | 1023.2 hPa | 0 mm | - | - | - |
| 1778032832 | 17.78° C | 76% | 1023.3 hPa | 0 mm | - | - | - |
| 1778031930 | 17.22° C | 79% | 1023.5 hPa | 0 mm | - | - | - |
| 1778031026 | 16.67° C | 85% | 1023.7 hPa | 0 mm | - | - | - |
* Rain latest hour (hover to see other rain measurements)
** Current wind speed in m/s (hover to see current wind gust speed)